createdAt,value
2018-12-02T00:00:02.592Z,10.8
2018-12-02T00:00:52.347Z,10.8
2018-12-02T00:01:43.740Z,10.8
2018-12-02T00:02:33.424Z,10.9
2018-12-02T00:03:22.178Z,10.9
2018-12-02T00:04:12.724Z,10.9
2018-12-02T00:05:03.461Z,10.8
2018-12-02T00:05:53.911Z,10.8
2018-12-02T00:06:43.326Z,10.8
2018-12-02T00:24:54.842Z,10.8
2018-12-02T00:25:45.472Z,10.8
2018-12-02T00:26:35.042Z,10.8
2018-12-02T00:27:24.729Z,10.7
2018-12-02T00:28:14.334Z,10.8
2018-12-02T00:29:05.437Z,10.8
2018-12-02T00:29:55.299Z,10.8
2018-12-02T00:30:45.679Z,10.8
2018-12-02T00:31:35.084Z,10.8
2018-12-02T00:32:23.749Z,10.8
2018-12-02T00:33:14.149Z,10.8
2018-12-02T00:34:05.534Z,10.8
2018-12-02T00:34:54.747Z,10.8
2018-12-02T00:35:45.952Z,10.8
2018-12-02T00:36:35.142Z,10.8
2018-12-02T00:37:25.679Z,10.8
2018-12-02T00:38:15.599Z,10.8
2018-12-02T00:39:05.622Z,10.8
2018-12-02T00:39:55.176Z,10.8
2018-12-02T00:40:46.216Z,10.8
2018-12-02T00:41:36.057Z,10.8
2018-12-02T00:42:25.811Z,10.8
2018-12-02T00:43:16.694Z,10.8
2018-12-02T00:44:07.518Z,10.8
2018-12-02T00:44:55.995Z,10.8
2018-12-02T00:45:45.501Z,10.8
2018-12-02T00:46:35.071Z,10.8
2018-12-02T00:47:25.204Z,10.8
2018-12-02T00:48:16.433Z,10.8
2018-12-02T00:49:06.788Z,10.8
2018-12-02T00:49:56.304Z,10.8
2018-12-02T00:50:46.093Z,10.8
2018-12-02T00:51:36.770Z,10.8
2018-12-02T00:52:26.531Z,10.8
2018-12-02T00:53:16.553Z,10.8
2018-12-02T00:54:06.355Z,10.8
2018-12-02T00:54:56.478Z,10.8
2018-12-02T00:55:47.248Z,10.8
2018-12-02T00:56:35.973Z,10.8
2018-12-02T00:57:27.853Z,10.8
2018-12-02T00:58:16.638Z,10.8
2018-12-02T00:59:06.122Z,10.8
2018-12-02T00:59:57.047Z,10.8
2018-12-02T01:00:46.262Z,10.8
2018-12-02T01:01:37.887Z,10.8
2018-12-02T01:02:27.192Z,10.8
2018-12-02T01:03:17.478Z,10.8
2018-12-02T01:04:07.080Z,10.8
2018-12-02T01:04:57.298Z,10.8
2018-12-02T01:05:47.223Z,10.8
2018-12-02T01:06:37.425Z,10.8
2018-12-02T01:07:27.735Z,10.8
2018-12-02T01:08:17.835Z,10.8
2018-12-02T01:09:06.359Z,10.8
2018-12-02T01:09:56.882Z,10.8
2018-12-02T01:10:48.358Z,10.8
2018-12-02T01:11:38.140Z,10.8
2018-12-02T01:12:27.070Z,10.8
2018-12-02T01:13:18.219Z,10.8
2018-12-02T01:14:08.030Z,10.8
2018-12-02T01:14:58.399Z,10.8
2018-12-02T01:15:48.619Z,10.8
2018-12-02T01:16:37.655Z,10.8
2018-12-02T01:17:28.489Z,10.8
2018-12-02T01:18:18.002Z,10.7
2018-12-02T01:19:08.319Z,10.8
2018-12-02T01:19:58.146Z,10.8
2018-12-02T01:20:47.787Z,10.8
2018-12-02T01:21:38.499Z,10.8
2018-12-02T01:22:28.126Z,10.8
2018-12-02T01:23:19.229Z,10.8
2018-12-02T01:24:08.463Z,10.8
2018-12-02T01:24:58.742Z,10.8
2018-12-02T01:25:49.601Z,10.8
2018-12-02T01:26:38.362Z,10.8
2018-12-02T01:27:29.185Z,10.8
2018-12-02T01:28:18.998Z,10.8
2018-12-02T01:29:08.488Z,10.7
2018-12-02T01:29:59.523Z,10.8
2018-12-02T01:30:49.254Z,10.8
2018-12-02T01:31:39.235Z,10.8
2018-12-02T01:32:29.225Z,10.8
2018-12-02T01:33:18.230Z,10.7
2018-12-02T01:34:09.585Z,10.7
2018-12-02T01:34:58.540Z,10.7
2018-12-02T01:35:50.045Z,10.7
2018-12-02T01:36:39.514Z,10.7
2018-12-02T01:37:29.083Z,10.8
2018-12-02T01:38:19.117Z,10.8
2018-12-02T01:39:09.472Z,10.8
2018-12-02T01:39:58.902Z,10.8
2018-12-02T01:40:49.807Z,10.8
2018-12-02T01:41:39.817Z,10.7
2018-12-02T01:42:30.950Z,10.8
2018-12-02T01:43:19.175Z,10.8
2018-12-02T01:44:09.980Z,10.8
2018-12-02T01:45:00.156Z,10.8
2018-12-02T01:45:49.864Z,10.8
2018-12-02T01:46:39.919Z,10.7
2018-12-02T01:47:29.982Z,10.7
2018-12-02T01:48:20.000Z,10.7
2018-12-02T01:49:09.852Z,10.7
2018-12-02T01:49:59.614Z,10.7
2018-12-02T01:50:49.744Z,10.7
2018-12-02T01:51:39.991Z,10.7
2018-12-02T01:52:30.331Z,10.7
2018-12-02T01:53:20.024Z,10.7
2018-12-02T01:54:10.676Z,10.7
2018-12-02T01:55:00.041Z,10.8
2018-12-02T01:55:50.841Z,10.7
2018-12-02T01:56:40.304Z,10.7
2018-12-02T01:57:31.037Z,10.7
2018-12-02T01:58:20.741Z,10.7
2018-12-02T01:59:10.581Z,10.7
2018-12-02T01:59:59.796Z,10.8
2018-12-02T02:00:50.081Z,10.8
2018-12-02T02:01:41.221Z,10.7
2018-12-02T02:02:31.306Z,10.7
2018-12-02T02:03:21.649Z,10.7
2018-12-02T02:04:10.907Z,10.7
2018-12-02T02:05:02.041Z,10.6
2018-12-02T02:05:51.233Z,10.7
2018-12-02T02:06:41.038Z,10.7
2018-12-02T02:07:32.143Z,10.7
2018-12-02T02:08:21.488Z,10.7
2018-12-02T02:09:10.983Z,10.7
2018-12-02T02:10:02.099Z,10.7
2018-12-02T02:10:51.570Z,10.7
2018-12-02T02:11:41.678Z,10.7
2018-12-02T02:12:31.535Z,10.7
2018-12-02T02:13:22.329Z,10.7
2018-12-02T02:14:12.577Z,10.7
2018-12-02T02:15:01.383Z,10.7
2018-12-02T02:15:51.446Z,10.7
2018-12-02T02:16:42.573Z,10.7
2018-12-02T02:17:31.730Z,10.7
2018-12-02T02:18:21.297Z,10.6
2018-12-02T02:19:11.627Z,10.7
2018-12-02T02:20:01.970Z,10.7
2018-12-02T02:20:52.262Z,10.7
2018-12-02T02:21:42.090Z,10.6
2018-12-02T02:22:32.090Z,10.7
2018-12-02T02:23:23.010Z,10.7
2018-12-02T02:24:13.047Z,10.7
2018-12-02T02:25:02.322Z,10.6
2018-12-02T02:25:52.422Z,10.7
2018-12-02T02:26:43.729Z,10.7
2018-12-02T02:27:32.717Z,10.7
2018-12-02T02:28:23.255Z,10.7
2018-12-02T02:29:11.792Z,10.6
2018-12-02T02:30:03.053Z,10.6
2018-12-02T02:30:52.757Z,10.6
2018-12-02T02:31:43.024Z,10.7
2018-12-02T02:32:33.374Z,10.7
2018-12-02T02:33:23.009Z,10.6
2018-12-02T02:34:13.234Z,10.7
2018-12-02T02:35:02.476Z,10.7
2018-12-02T02:35:52.814Z,10.6
2018-12-02T02:36:43.416Z,10.7
2018-12-02T02:37:34.039Z,10.7
2018-12-02T02:38:24.126Z,10.6
2018-12-02T02:39:14.367Z,10.6
2018-12-02T02:40:03.436Z,10.7
2018-12-02T02:40:54.206Z,10.7
2018-12-02T02:41:43.521Z,10.6
2018-12-02T02:42:33.559Z,10.6
2018-12-02T02:43:25.219Z,10.6
2018-12-02T02:44:13.883Z,10.6
2018-12-02T02:45:02.620Z,10.6
2018-12-02T02:45:54.090Z,10.6
2018-12-02T02:46:43.863Z,10.6
2018-12-02T02:47:33.842Z,10.6
2018-12-02T02:48:24.006Z,10.6
2018-12-02T02:49:13.976Z,10.6
2018-12-02T02:50:03.201Z,10.6
2018-12-02T02:50:54.109Z,10.6
2018-12-02T02:51:43.865Z,10.6
2018-12-02T02:52:34.480Z,10.6
2018-12-02T02:53:24.193Z,10.6
2018-12-02T02:54:14.925Z,10.6
2018-12-02T02:55:04.933Z,10.7
2018-12-02T02:55:54.768Z,10.6
2018-12-02T02:56:44.270Z,10.6
2018-12-02T02:57:34.822Z,10.6
2018-12-02T02:58:24.968Z,10.6
2018-12-02T02:59:15.215Z,10.6
2018-12-02T03:00:05.878Z,10.6
2018-12-02T03:00:54.048Z,10.6
2018-12-02T03:01:45.975Z,10.6
2018-12-02T03:02:34.880Z,10.7
2018-12-02T03:03:25.465Z,10.6
2018-12-02T03:04:15.547Z,10.6
2018-12-02T03:05:05.617Z,10.6
2018-12-02T03:05:55.695Z,10.6
2018-12-02T03:06:46.290Z,10.6
2018-12-02T03:07:35.556Z,10.6
2018-12-02T03:08:26.182Z,10.6
2018-12-02T03:09:17.215Z,10.6
2018-12-02T03:10:06.504Z,10.6
2018-12-02T03:10:56.811Z,10.6
2018-12-02T03:11:46.619Z,10.6
2018-12-02T03:12:36.156Z,10.6
2018-12-02T03:13:25.914Z,10.6
2018-12-02T03:14:17.160Z,10.6
2018-12-02T03:15:05.776Z,10.6
2018-12-02T03:15:55.632Z,10.6
2018-12-02T03:16:46.713Z,10.6
2018-12-02T03:17:36.794Z,10.6
2018-12-02T03:18:25.765Z,10.6
2018-12-02T03:19:17.069Z,10.6
2018-12-02T03:20:05.767Z,10.6
2018-12-02T03:20:56.679Z,10.6
2018-12-02T03:21:46.183Z,10.6
2018-12-02T03:22:36.202Z,10.6
2018-12-02T03:23:26.867Z,10.6
2018-12-02T03:24:16.951Z,10.6
2018-12-02T03:25:07.201Z,10.6
2018-12-02T03:25:57.125Z,10.6
2018-12-02T03:26:47.346Z,10.6
2018-12-02T03:27:36.928Z,10.6
2018-12-02T03:28:26.698Z,10.6
2018-12-02T03:29:18.058Z,10.6
2018-12-02T03:30:06.991Z,10.6
2018-12-02T03:30:56.981Z,10.6
2018-12-02T03:31:48.523Z,10.6
2018-12-02T03:32:37.586Z,10.6
2018-12-02T03:33:28.052Z,10.6
2018-12-02T03:34:17.488Z,10.6
2018-12-02T03:35:08.482Z,10.6
2018-12-02T03:35:57.420Z,10.6
2018-12-02T03:36:47.538Z,10.6
2018-12-02T03:37:38.344Z,10.6
2018-12-02T03:38:27.632Z,10.6
2018-12-02T03:39:17.687Z,10.6
2018-12-02T03:40:08.584Z,10.6
2018-12-02T03:40:57.777Z,10.6
2018-12-02T03:41:48.414Z,10.6
2018-12-02T03:42:37.127Z,10.6
2018-12-02T03:43:27.231Z,10.6
2018-12-02T03:44:17.302Z,10.6
2018-12-02T03:45:09.218Z,10.6
2018-12-02T03:45:57.041Z,10.6
2018-12-02T03:46:49.059Z,10.6
2018-12-02T03:47:37.981Z,10.6
2018-12-02T03:48:28.583Z,10.6
2018-12-02T03:49:17.854Z,10.6
2018-12-02T03:50:08.674Z,10.6
2018-12-02T03:50:58.377Z,10.6
2018-12-02T03:51:49.003Z,10.6
2018-12-02T03:52:39.144Z,10.6
2018-12-02T03:53:29.245Z,10.6
2018-12-02T03:54:19.484Z,10.6
2018-12-02T03:55:08.451Z,10.6
2018-12-02T03:55:59.126Z,10.6
2018-12-02T03:56:49.126Z,10.6
2018-12-02T03:57:39.469Z,10.5
2018-12-02T03:58:28.889Z,10.6
2018-12-02T03:59:19.341Z,10.6
2018-12-02T04:00:09.978Z,10.5
2018-12-02T04:01:00.293Z,10.6
2018-12-02T04:01:48.861Z,10.6
2018-12-02T04:02:39.202Z,10.6
2018-12-02T04:03:30.656Z,10.6
2018-12-02T04:04:19.331Z,10.6
2018-12-02T04:05:08.946Z,10.6
2018-12-02T04:05:59.758Z,10.6
2018-12-02T04:06:50.925Z,10.6
2018-12-02T04:07:39.614Z,10.6
2018-12-02T04:08:30.176Z,10.6
2018-12-02T04:09:19.971Z,10.6
2018-12-02T04:10:09.971Z,10.6
2018-12-02T04:11:00.666Z,10.6
2018-12-02T04:11:50.402Z,10.6
2018-12-02T04:12:40.735Z,10.6
2018-12-02T04:13:30.481Z,10.6
2018-12-02T04:14:20.859Z,10.6
2018-12-02T04:15:09.024Z,10.6
2018-12-02T04:16:00.151Z,10.6
2018-12-02T04:16:51.868Z,10.6
2018-12-02T04:17:41.024Z,10.6
2018-12-02T04:18:30.298Z,10.6
2018-12-02T04:19:19.868Z,10.6
2018-12-02T04:20:11.353Z,10.6
2018-12-02T04:21:01.610Z,10.6
2018-12-02T04:21:52.088Z,10.5
2018-12-02T04:22:41.212Z,10.6
2018-12-02T04:23:30.753Z,10.6
2018-12-02T04:24:20.218Z,10.5
2018-12-02T04:25:26.861Z,10.6
2018-12-02T04:26:01.125Z,10.6
2018-12-02T04:26:50.095Z,10.6
2018-12-02T04:27:41.276Z,10.6
2018-12-02T04:28:31.036Z,10.6
2018-12-02T04:29:21.410Z,10.6
2018-12-02T04:30:11.162Z,10.6
2018-12-02T04:31:02.282Z,10.5
2018-12-02T04:31:52.043Z,10.6
2018-12-02T04:32:40.934Z,10.5
2018-12-02T04:33:31.352Z,10.6
2018-12-02T04:34:22.402Z,10.6
2018-12-02T04:35:11.495Z,10.6
2018-12-02T04:36:01.656Z,10.6
2018-12-02T04:36:51.935Z,10.6
2018-12-02T04:54:08.444Z,10.4
2018-12-02T04:54:58.933Z,10.4
2018-12-02T04:55:48.735Z,10.4
2018-12-02T04:56:38.738Z,10.4
2018-12-02T04:57:29.871Z,10.4
2018-12-02T04:58:18.553Z,10.4
2018-12-02T04:59:09.783Z,10.4
2018-12-02T04:59:59.263Z,10.4
2018-12-02T05:00:49.238Z,10.5
2018-12-02T05:01:39.620Z,10.5
2018-12-02T05:02:29.666Z,10.4
2018-12-02T05:03:20.241Z,10.4
2018-12-02T05:04:09.608Z,10.4
2018-12-02T05:05:00.376Z,10.4
2018-12-02T05:05:50.157Z,10.4
2018-12-02T05:06:39.971Z,10.4
2018-12-02T05:07:30.253Z,10.4
2018-12-02T05:08:19.745Z,10.5
2018-12-02T05:09:10.234Z,10.4
2018-12-02T05:09:59.670Z,10.5
2018-12-02T05:10:49.963Z,10.5
2018-12-02T05:11:39.763Z,10.5
2018-12-02T05:12:29.188Z,10.5
2018-12-02T05:13:20.663Z,10.5
2018-12-02T05:14:10.512Z,10.4
2018-12-02T05:14:59.692Z,10.5
2018-12-02T05:15:50.606Z,10.5
2018-12-02T05:16:40.150Z,10.5
2018-12-02T05:17:30.145Z,10.5
2018-12-02T05:18:21.265Z,10.5
2018-12-02T05:19:10.832Z,10.4
2018-12-02T05:20:01.308Z,10.4
2018-12-02T05:20:50.253Z,10.5
2018-12-02T05:21:40.490Z,10.5
2018-12-02T05:22:29.910Z,10.4
2018-12-02T05:23:21.352Z,10.4
2018-12-02T05:24:11.079Z,10.4
2018-12-02T05:25:01.228Z,10.4
2018-12-02T05:25:51.189Z,10.4
2018-12-02T05:26:40.882Z,10.4
2018-12-02T05:27:30.821Z,10.5
2018-12-02T05:28:20.425Z,10.5
2018-12-02T05:29:10.253Z,10.5
2018-12-02T05:30:01.827Z,10.5
2018-12-02T05:30:51.357Z,10.5
2018-12-02T05:31:40.882Z,10.5
2018-12-02T05:32:31.796Z,10.5
2018-12-02T05:33:21.737Z,10.5
2018-12-02T05:34:11.844Z,10.4
2018-12-02T05:35:01.841Z,10.4
2018-12-02T05:35:50.669Z,10.4
2018-12-02T05:36:42.396Z,10.4
2018-12-02T05:37:32.574Z,10.4
2018-12-02T05:38:21.844Z,10.4
2018-12-02T05:39:11.695Z,10.4
2018-12-02T05:40:01.777Z,10.4
2018-12-02T05:40:51.854Z,10.4
2018-12-02T05:41:42.608Z,10.5
2018-12-02T05:42:31.782Z,10.5
2018-12-02T05:43:21.338Z,10.4
2018-12-02T05:44:11.626Z,10.4
2018-12-02T05:45:03.111Z,10.4
2018-12-02T05:45:52.063Z,10.4
2018-12-02T05:46:41.616Z,10.4
2018-12-02T05:47:32.483Z,10.4
2018-12-02T05:48:22.333Z,10.4
2018-12-02T05:49:12.350Z,10.4
2018-12-02T05:50:02.685Z,10.4
2018-12-02T05:50:53.033Z,10.4
2018-12-02T05:51:42.846Z,10.4
2018-12-02T05:52:33.072Z,10.4
2018-12-02T05:53:22.879Z,10.4
2018-12-02T05:54:13.135Z,10.4
2018-12-02T05:55:03.212Z,10.4
2018-12-02T05:55:53.549Z,10.4
2018-12-02T05:56:44.681Z,10.4
2018-12-02T05:57:32.610Z,10.4
2018-12-02T05:58:23.445Z,10.4
2018-12-02T05:59:12.655Z,10.4
2018-12-02T06:00:02.817Z,10.4
2018-12-02T06:00:53.364Z,10.4
2018-12-02T06:01:43.729Z,10.4
2018-12-02T06:02:33.530Z,10.4
2018-12-02T06:03:22.942Z,10.4
2018-12-02T06:04:13.580Z,10.4
2018-12-02T06:05:03.621Z,10.4
2018-12-02T06:05:55.126Z,10.4
2018-12-02T06:06:43.564Z,10.4
2018-12-02T06:07:34.063Z,10.4
2018-12-02T06:08:23.324Z,10.4
2018-12-02T06:09:15.064Z,10.4
2018-12-02T06:10:03.737Z,10.4
2018-12-02T06:10:53.747Z,10.4
2018-12-02T06:11:49.989Z,10.4
2018-12-02T06:12:33.930Z,10.4
2018-12-02T06:13:24.481Z,10.4
2018-12-02T06:14:13.963Z,10.4
2018-12-02T06:15:04.315Z,10.4
2018-12-02T06:15:54.876Z,10.4
2018-12-02T06:16:45.609Z,10.4
2018-12-02T06:17:35.618Z,10.4
2018-12-02T06:18:25.641Z,10.4
2018-12-02T06:19:15.149Z,10.4
2018-12-02T06:20:11.086Z,10.4
2018-12-02T06:20:56.389Z,10.4
2018-12-02T06:21:45.415Z,10.4
2018-12-02T06:22:35.421Z,10.4
2018-12-02T06:23:25.158Z,10.4
2018-12-02T06:24:15.468Z,10.4
2018-12-02T06:25:05.286Z,10.4
2018-12-02T06:25:55.878Z,10.4
2018-12-02T06:26:45.425Z,10.4
2018-12-02T06:27:36.046Z,10.4
2018-12-02T06:28:25.796Z,10.4
2018-12-02T06:29:15.555Z,10.4
2018-12-02T06:30:05.600Z,10.4
2018-12-02T06:30:56.193Z,10.4
2018-12-02T06:31:45.793Z,10.4
2018-12-02T06:32:35.750Z,10.4
2018-12-02T06:33:25.858Z,10.4
2018-12-02T06:34:15.895Z,10.4
2018-12-02T06:35:05.960Z,10.4
2018-12-02T06:35:55.730Z,10.4
2018-12-02T06:36:46.557Z,10.4
2018-12-02T06:37:36.070Z,10.4
2018-12-02T06:38:26.439Z,10.4
2018-12-02T06:39:15.947Z,10.5
2018-12-02T06:40:06.664Z,10.4
2018-12-02T06:40:55.502Z,10.4
2018-12-02T06:41:46.594Z,10.4
2018-12-02T06:42:36.144Z,10.5
2018-12-02T06:43:27.124Z,10.5
2018-12-02T06:44:16.293Z,10.4
2018-12-02T06:45:05.330Z,10.4
2018-12-02T06:45:56.662Z,10.4
2018-12-02T06:46:46.985Z,10.5
2018-12-02T06:47:36.518Z,10.5
2018-12-02T06:48:27.384Z,10.5
2018-12-02T06:49:16.634Z,10.5
2018-12-02T06:50:07.802Z,10.5
2018-12-02T06:50:57.881Z,10.5
2018-12-02T06:51:47.594Z,10.6
2018-12-02T06:52:36.346Z,10.6
2018-12-02T06:53:26.951Z,10.6
2018-12-02T06:54:16.361Z,10.6
2018-12-02T06:55:07.576Z,10.6
2018-12-02T06:55:57.096Z,10.6
2018-12-02T06:56:46.380Z,10.6
2018-12-02T06:57:37.208Z,10.6
2018-12-02T06:58:27.846Z,10.6
2018-12-02T06:59:17.321Z,10.6
2018-12-02T07:00:07.666Z,10.6
2018-12-02T07:00:58.544Z,10.6
2018-12-02T07:01:47.804Z,10.6
2018-12-02T07:02:37.398Z,10.6
2018-12-02T07:03:28.423Z,10.6
2018-12-02T07:04:17.926Z,10.6
2018-12-02T07:05:08.818Z,10.6
2018-12-02T07:05:57.845Z,10.6
2018-12-02T07:06:48.461Z,10.6
2018-12-02T07:07:38.125Z,10.6
2018-12-02T07:08:28.530Z,10.6
2018-12-02T07:09:19.661Z,10.6
2018-12-02T07:10:07.507Z,10.6
2018-12-02T07:10:58.668Z,10.6
2018-12-02T07:11:48.152Z,10.6
2018-12-02T07:12:38.184Z,10.6
2018-12-02T07:13:29.085Z,10.7
2018-12-02T07:14:18.927Z,10.6
2018-12-02T07:15:08.399Z,10.6
2018-12-02T07:15:58.210Z,10.7
2018-12-02T07:16:49.112Z,10.7
2018-12-02T07:17:39.102Z,10.7
2018-12-02T07:18:28.977Z,10.7
2018-12-02T07:19:18.114Z,10.7
2018-12-02T07:20:09.521Z,10.7
2018-12-02T07:20:58.759Z,10.7
2018-12-02T07:21:48.892Z,10.8
2018-12-02T07:22:39.747Z,10.7
2018-12-02T07:23:29.484Z,10.7
2018-12-02T07:24:19.310Z,10.8
2018-12-02T07:25:08.581Z,10.8
2018-12-02T07:25:59.939Z,10.8
2018-12-02T07:26:49.729Z,10.8
2018-12-02T07:27:39.032Z,10.8
2018-12-02T07:28:29.229Z,10.8
2018-12-02T07:29:19.669Z,10.8
2018-12-02T07:30:08.440Z,10.8
2018-12-02T07:30:59.736Z,10.8
2018-12-02T07:31:49.796Z,10.8
2018-12-02T07:32:41.701Z,10.8
2018-12-02T07:33:30.467Z,10.8
2018-12-02T07:34:19.406Z,10.8
2018-12-02T07:35:10.026Z,10.8
2018-12-02T07:35:59.823Z,10.8
2018-12-02T07:36:49.649Z,10.8
2018-12-02T07:37:40.471Z,10.8
2018-12-02T07:38:29.741Z,10.8
2018-12-02T07:39:20.056Z,10.8
2018-12-02T07:40:10.366Z,10.8
2018-12-02T07:40:59.886Z,10.8
2018-12-02T07:41:50.776Z,10.9
2018-12-02T07:42:40.824Z,10.9
2018-12-02T07:43:30.104Z,10.9
2018-12-02T07:44:21.458Z,10.9
2018-12-02T07:45:11.263Z,10.9
2018-12-02T07:46:01.555Z,10.9
2018-12-02T07:46:50.827Z,10.9
2018-12-02T07:47:40.343Z,10.9
2018-12-02T07:48:30.416Z,10.9
2018-12-02T07:49:20.570Z,10.9
2018-12-02T07:50:10.838Z,10.9
2018-12-02T07:51:00.812Z,10.9
2018-12-02T07:51:50.883Z,10.9
2018-12-02T07:52:40.467Z,10.9
2018-12-02T07:53:31.028Z,11
2018-12-02T07:54:21.635Z,11
2018-12-02T07:55:11.960Z,11
2018-12-02T07:56:02.186Z,11
2018-12-02T07:56:51.830Z,11
2018-12-02T07:57:41.445Z,11.1
2018-12-02T07:58:31.966Z,11.1
2018-12-02T07:59:22.227Z,11.1
2018-12-02T08:00:12.055Z,11.1
2018-12-02T08:01:02.350Z,11.1
2018-12-02T08:01:51.870Z,11.1
2018-12-02T08:02:41.930Z,11.1
2018-12-02T08:03:32.230Z,11.1
2018-12-02T08:04:21.510Z,11.2
2018-12-02T08:05:12.049Z,11.1
2018-12-02T08:06:01.916Z,11.2
2018-12-02T08:06:51.916Z,11.2
2018-12-02T08:07:42.794Z,11.2
2018-12-02T08:08:31.771Z,11.3
2018-12-02T08:09:22.634Z,11.2
2018-12-02T08:10:11.851Z,11.3
2018-12-02T08:11:03.654Z,11.3
2018-12-02T08:11:51.981Z,11.3
2018-12-02T08:12:42.601Z,11.3
2018-12-02T08:13:32.640Z,11.3
2018-12-02T08:14:23.040Z,11.2
2018-12-02T08:15:12.259Z,11.2
2018-12-02T08:16:03.086Z,11.2
2018-12-02T08:16:53.951Z,11.2
2018-12-02T08:17:42.921Z,11.2
2018-12-02T08:18:33.255Z,11.3
2018-12-02T08:19:22.751Z,11.3
2018-12-02T08:20:13.646Z,11.3
2018-12-02T08:21:03.478Z,11.3
2018-12-02T08:21:52.713Z,11.3
2018-12-02T08:22:42.473Z,11.3
2018-12-02T08:23:32.772Z,11.3
2018-12-02T08:24:23.446Z,11.3
2018-12-02T08:25:13.999Z,11.4
2018-12-02T08:26:03.788Z,11.3
2018-12-02T08:26:53.510Z,11.4
2018-12-02T08:27:44.220Z,11.4
2018-12-02T08:28:33.712Z,11.4
2018-12-02T08:29:24.050Z,11.4
2018-12-02T08:30:14.367Z,11.4
2018-12-02T08:31:03.575Z,11.4
2018-12-02T08:31:53.479Z,11.4
2018-12-02T08:32:43.835Z,11.4
2018-12-02T08:33:32.300Z,11.4
2018-12-02T08:34:23.635Z,11.4
2018-12-02T08:35:13.134Z,11.4
2018-12-02T08:36:03.799Z,11.4
2018-12-02T08:36:53.815Z,11.4
2018-12-02T08:37:43.595Z,11.4
2018-12-02T08:38:33.894Z,11.4
2018-12-02T08:39:24.016Z,11.4
2018-12-02T08:40:14.844Z,11.4
2018-12-02T08:41:04.561Z,11.4
2018-12-02T08:41:55.141Z,11.5
2018-12-02T08:42:44.411Z,11.5
2018-12-02T08:43:34.733Z,11.5
2018-12-02T08:44:24.553Z,11.5
2018-12-02T08:45:13.751Z,11.6
2018-12-02T08:46:05.257Z,11.6
2018-12-02T08:46:54.961Z,11.6
2018-12-02T08:47:44.520Z,11.6
2018-12-02T08:48:34.059Z,11.6
2018-12-02T08:49:24.277Z,11.7
2018-12-02T08:50:15.285Z,11.6
2018-12-02T08:51:04.411Z,11.6
2018-12-02T08:51:55.695Z,11.6
2018-12-02T08:52:45.689Z,11.7
2018-12-02T09:08:34.372Z,11.6
2018-12-02T09:09:25.515Z,11.6
2018-12-02T09:10:13.710Z,11.6
2018-12-02T09:11:04.512Z,11.6
2018-12-02T09:11:54.554Z,11.6
2018-12-02T09:12:44.578Z,11.5
2018-12-02T09:13:34.729Z,11.6
2018-12-02T09:14:24.204Z,11.5
2018-12-02T09:15:16.374Z,11.6
2018-12-02T09:16:04.535Z,11.6
2018-12-02T09:16:54.934Z,11.6
2018-12-02T09:17:44.937Z,11.6
2018-12-02T09:18:35.663Z,11.6
2018-12-02T09:19:24.781Z,11.6
2018-12-02T09:20:14.285Z,11.7
2018-12-02T09:21:03.810Z,11.8
2018-12-02T09:21:54.974Z,11.9
2018-12-02T09:22:44.996Z,11.9
2018-12-02T09:23:35.663Z,11.9
2018-12-02T09:24:25.029Z,11.9
2018-12-02T09:25:15.758Z,11.9
2018-12-02T09:26:05.243Z,12
2018-12-02T09:26:54.788Z,12.1
2018-12-02T09:27:44.317Z,12.1
2018-12-02T09:28:35.793Z,12.1
2018-12-02T09:29:25.548Z,12.1
2018-12-02T09:30:15.894Z,12.3
2018-12-02T09:31:04.361Z,12.4
2018-12-02T09:31:54.873Z,12.4
2018-12-02T09:32:45.809Z,12.4
2018-12-02T09:33:36.287Z,12.4
2018-12-02T09:34:26.654Z,12.4
2018-12-02T09:35:14.989Z,12.3
2018-12-02T09:36:05.730Z,12.3
2018-12-02T09:37:02.293Z,12.3
2018-12-02T09:37:45.695Z,12.4
2018-12-02T09:38:36.636Z,12.4
2018-12-02T09:39:26.801Z,12.4
2018-12-02T09:40:15.435Z,12.4
2018-12-02T09:41:06.312Z,12.5
2018-12-02T09:41:56.320Z,12.6
2018-12-02T09:42:46.735Z,12.5
2018-12-02T09:43:36.239Z,12.6
2018-12-02T09:44:27.119Z,12.6
2018-12-02T09:45:16.673Z,12.6
2018-12-02T09:46:06.617Z,12.6
2018-12-02T09:46:56.148Z,12.6
2018-12-02T09:47:46.781Z,12.6
2018-12-02T09:48:37.355Z,12.6
2018-12-02T09:49:26.667Z,12.6
2018-12-02T09:50:17.155Z,12.6
2018-12-02T09:51:08.080Z,12.6
2018-12-02T09:51:57.893Z,12.6
2018-12-02T09:52:47.433Z,12.6
2018-12-02T09:53:38.311Z,12.8
2018-12-02T09:54:30.720Z,12.8
2018-12-02T09:55:17.545Z,12.9
2018-12-02T09:56:07.640Z,12.9
2018-12-02T09:56:56.935Z,13.1
2018-12-02T09:57:46.440Z,13.3
2018-12-02T09:58:37.522Z,13.4
2018-12-02T09:59:26.245Z,13.4
2018-12-02T10:00:17.263Z,13.5
2018-12-02T10:01:07.417Z,13.6
2018-12-02T10:01:57.464Z,13.7
2018-12-02T10:02:47.842Z,13.7
2018-12-02T10:03:37.957Z,13.8
2018-12-02T10:04:29.482Z,13.8
2018-12-02T10:05:17.817Z,13.8
2018-12-02T10:06:08.679Z,13.8
2018-12-02T10:06:58.125Z,13.8
2018-12-02T10:07:48.790Z,13.7
2018-12-02T10:08:38.774Z,13.7
2018-12-02T10:09:29.151Z,13.7
2018-12-02T10:10:24.374Z,13.8
2018-12-02T10:11:08.494Z,13.7
2018-12-02T10:11:58.444Z,13.7
2018-12-02T10:12:48.784Z,13.7
2018-12-02T10:13:39.399Z,13.7
2018-12-02T10:14:29.176Z,13.7
2018-12-02T10:15:19.532Z,13.7
2018-12-02T10:16:09.603Z,13.6
2018-12-02T10:16:58.945Z,13.6
2018-12-02T10:17:48.391Z,13.6
2018-12-02T10:18:38.458Z,13.6
2018-12-02T10:19:28.796Z,13.6
2018-12-02T10:20:19.126Z,13.6
2018-12-02T10:21:09.169Z,13.6
2018-12-02T10:21:59.666Z,13.7
2018-12-02T10:22:48.983Z,13.7
2018-12-02T10:23:39.268Z,13.7
2018-12-02T10:24:29.151Z,13.7
2018-12-02T10:25:18.829Z,13.7
2018-12-02T10:26:10.218Z,13.7
2018-12-02T10:27:00.588Z,13.8
2018-12-02T10:27:49.403Z,13.8
2018-12-02T10:28:39.133Z,13.8
2018-12-02T10:29:29.120Z,13.8
2018-12-02T10:30:20.285Z,13.8
2018-12-02T10:31:10.060Z,13.8
2018-12-02T10:32:00.008Z,13.8
2018-12-02T10:32:49.184Z,13.8
2018-12-02T10:33:40.792Z,13.8
2018-12-02T10:34:29.799Z,13.8
2018-12-02T10:35:19.056Z,13.8
2018-12-02T10:36:09.908Z,13.8
2018-12-02T10:37:00.849Z,13.9
2018-12-02T10:37:49.774Z,14
2018-12-02T10:38:40.417Z,14
2018-12-02T10:39:29.640Z,14.1
2018-12-02T10:40:20.783Z,14.1
2018-12-02T10:41:10.120Z,14.1
2018-12-02T10:41:58.804Z,14.1
2018-12-02T10:42:50.169Z,14.1
2018-12-02T10:43:40.524Z,14.1
2018-12-02T10:44:30.497Z,14.1
2018-12-02T10:45:20.626Z,14.1
2018-12-02T10:46:09.857Z,14.1
2018-12-02T10:47:02.652Z,14.1
2018-12-02T10:47:52.029Z,14.1
2018-12-02T10:48:41.052Z,14.1
2018-12-02T10:49:31.405Z,14.1
2018-12-02T10:50:21.149Z,14.1
2018-12-02T10:51:11.561Z,14.1
2018-12-02T10:52:01.671Z,14.1
2018-12-02T10:52:50.909Z,14.1
2018-12-02T10:53:40.598Z,14.1
2018-12-02T10:54:31.964Z,14.1
2018-12-02T10:55:21.274Z,14.1
2018-12-02T10:56:11.441Z,14.1
2018-12-02T10:57:01.411Z,14.1
2018-12-02T10:57:50.572Z,14.1
2018-12-02T10:58:41.813Z,14.1
2018-12-02T10:59:32.168Z,14.1
2018-12-02T11:00:21.898Z,14.2
2018-12-02T11:01:11.126Z,14.2
2018-12-02T11:02:01.696Z,14.2
2018-12-02T11:02:50.983Z,14.2
2018-12-02T11:03:41.232Z,14.1
2018-12-02T11:04:31.613Z,14.2
2018-12-02T11:05:22.435Z,14.2
2018-12-02T11:06:13.070Z,14.2
2018-12-02T11:07:01.565Z,14.2
2018-12-02T11:07:52.313Z,14.2
2018-12-02T11:08:43.308Z,14.3
2018-12-02T11:09:32.433Z,14.3
2018-12-02T11:10:22.495Z,14.3
2018-12-02T11:11:12.060Z,14.3
2018-12-02T11:12:01.453Z,14.3
2018-12-02T11:12:52.829Z,14.3
2018-12-02T11:13:43.025Z,14.2
2018-12-02T11:14:33.327Z,14.2
2018-12-02T11:15:23.977Z,14.2
2018-12-02T11:16:13.212Z,14.2
2018-12-02T11:17:04.065Z,14.2
2018-12-02T11:17:52.282Z,14.2
2018-12-02T11:18:44.230Z,14.1
2018-12-02T11:19:32.597Z,14.1
2018-12-02T11:20:22.997Z,14.2
2018-12-02T11:21:13.332Z,14.2
2018-12-02T11:22:03.617Z,14.2
2018-12-02T11:22:53.459Z,14.2
2018-12-02T11:23:43.984Z,14.2
2018-12-02T11:24:33.489Z,14.2
2018-12-02T11:25:23.902Z,14.2
2018-12-02T11:26:12.867Z,14.3
2018-12-02T11:27:04.129Z,14.3
2018-12-02T11:27:54.217Z,14.3
2018-12-02T11:28:43.621Z,14.3
2018-12-02T11:29:34.236Z,14.3
2018-12-02T11:30:23.992Z,14.3
2018-12-02T11:31:14.037Z,14.3
2018-12-02T11:32:04.104Z,14.3
2018-12-02T11:32:54.257Z,14.2
2018-12-02T11:33:42.637Z,14.2
2018-12-02T11:34:34.314Z,14.2
2018-12-02T11:35:23.841Z,14.3
2018-12-02T11:36:13.626Z,14.3
2018-12-02T11:37:02.606Z,14.3
2018-12-02T11:37:54.574Z,14.3
2018-12-02T11:38:44.443Z,14.3
2018-12-02T11:39:33.801Z,14.3
2018-12-02T11:40:24.898Z,14.2
2018-12-02T11:41:14.723Z,14.1
2018-12-02T11:42:04.148Z,14.1
2018-12-02T11:42:54.806Z,14
2018-12-02T11:43:45.911Z,14
2018-12-02T11:44:35.741Z,13.9
2018-12-02T11:45:24.981Z,13.8
2018-12-02T11:46:15.326Z,13.8
2018-12-02T11:47:05.914Z,13.7
2018-12-02T11:47:56.020Z,13.6
2018-12-02T11:48:45.742Z,13.5
2018-12-02T11:49:36.103Z,13.6
2018-12-02T11:50:26.432Z,13.5
2018-12-02T11:51:15.616Z,13.5
2018-12-02T11:52:06.019Z,13.6
2018-12-02T11:52:56.133Z,13.5
2018-12-02T11:53:46.063Z,13.4
2018-12-02T11:54:36.178Z,13.3
2018-12-02T11:55:26.008Z,13.3